sensor_id;sensor_type;location;lat;lon;timestamp;pressure;altitude;pressure_sealevel;temperature;humidity
61018;BME280;48171;51.550;5.434;2023-01-28T00:00:25;102918.38;;;3.67;86.05
61018;BME280;48171;51.550;5.434;2023-01-28T00:02:50;102914.72;;;3.64;86.20
61018;BME280;48171;51.550;5.434;2023-01-28T00:05:15;102918.56;;;3.70;86.42
61018;BME280;48171;51.550;5.434;2023-01-28T00:07:41;102928.03;;;3.68;86.17
61018;BME280;48171;51.550;5.434;2023-01-28T00:10:06;102926.16;;;3.66;86.27
61018;BME280;48171;51.550;5.434;2023-01-28T00:12:32;102930.66;;;3.68;85.75
61018;BME280;48171;51.550;5.434;2023-01-28T00:14:57;102930.75;;;3.70;85.35
61018;BME280;48171;51.550;5.434;2023-01-28T00:17:22;102939.47;;;3.70;85.27
61018;BME280;48171;51.550;5.434;2023-01-28T00:19:48;102927.59;;;3.60;85.16
61018;BME280;48171;51.550;5.434;2023-01-28T00:22:13;102941.91;;;3.67;84.90
61018;BME280;48171;51.550;5.434;2023-01-28T00:24:39;102939.88;;;3.62;84.05
61018;BME280;48171;51.550;5.434;2023-01-28T00:27:04;102941.47;;;3.59;84.40
61018;BME280;48171;51.550;5.434;2023-01-28T00:29:29;102941.47;;;3.59;84.40
61018;BME280;48171;51.550;5.434;2023-01-28T00:31:55;102942.41;;;3.60;84.33
61018;BME280;48171;51.550;5.434;2023-01-28T00:34:20;102931.50;;;3.52;84.18
61018;BME280;48171;51.550;5.434;2023-01-28T00:36:46;102952.75;;;3.58;84.02
61018;BME280;48171;51.550;5.434;2023-01-28T00:39:23;102935.03;;;3.53;84.31
61018;BME280;48171;51.550;5.434;2023-01-28T00:41:49;102950.06;;;3.57;83.84
61018;BME280;48171;51.550;5.434;2023-01-28T00:44:14;102956.03;;;3.54;84.20
61018;BME280;48171;51.550;5.434;2023-01-28T00:46:40;102956.03;;;3.54;85.11
61018;BME280;48171;51.550;5.434;2023-01-28T00:49:06;102946.38;;;3.53;84.99
61018;BME280;48171;51.550;5.434;2023-01-28T00:51:31;102946.47;;;3.55;84.44
61018;BME280;48171;51.550;5.434;2023-01-28T00:53:57;102943.75;;;3.53;84.50
61018;BME280;48171;51.550;5.434;2023-01-28T00:56:22;102952.50;;;3.54;84.73
61018;BME280;48171;51.550;5.434;2023-01-28T00:58:47;102953.41;;;3.54;84.97
61018;BME280;48171;51.550;5.434;2023-01-28T01:01:19;102959.44;;;3.53;84.63
61018;BME280;48171;51.550;5.434;2023-01-28T01:03:45;102961.06;;;3.51;83.72
61018;BME280;48171;51.550;5.434;2023-01-28T01:06:12;102959.03;;;3.46;83.69
61018;BME280;48171;51.550;5.434;2023-01-28T01:08:38;102953.63;;;3.43;83.18
61018;BME280;48171;51.550;5.434;2023-01-28T01:11:09;102959.09;;;3.47;82.63
61018;BME280;48171;51.550;5.434;2023-01-28T01:13:35;102952.09;;;3.46;83.20
61018;BME280;48171;51.550;5.434;2023-01-28T01:16:09;102946.94;;;3.48;83.79
61018;BME280;48171;51.550;5.434;2023-01-28T01:18:36;102958.19;;;3.47;83.95
61018;BME280;48171;51.550;5.434;2023-01-28T01:21:07;102954.69;;;3.46;84.47
61018;BME280;48171;51.550;5.434;2023-01-28T01:23:32;102952.88;;;3.45;84.60
61018;BME280;48171;51.550;5.434;2023-01-28T01:25:58;102951.00;;;3.43;84.08
61018;BME280;48171;51.550;5.434;2023-01-28T01:28:23;102952.72;;;3.42;84.46
61018;BME280;48171;51.550;5.434;2023-01-28T01:30:48;102954.59;;;3.45;84.71
61018;BME280;48171;51.550;5.434;2023-01-28T01:33:15;102941.19;;;3.38;84.53
61018;BME280;48171;51.550;5.434;2023-01-28T01:35:40;102948.38;;;3.43;84.13
61018;BME280;48171;51.550;5.434;2023-01-28T01:38:06;102947.66;;;3.45;83.99
61018;BME280;48171;51.550;5.434;2023-01-28T01:40:31;102940.66;;;3.44;83.81
61018;BME280;48171;51.550;5.434;2023-01-28T01:42:56;102938.41;;;3.35;83.56
61018;BME280;48171;51.550;5.434;2023-01-28T01:45:22;102953.72;;;3.44;83.18
61018;BME280;48171;51.550;5.434;2023-01-28T01:48:02;102955.34;;;3.42;83.55
61018;BME280;48171;51.550;5.434;2023-01-28T01:50:38;102959.81;;;3.45;83.54
61018;BME280;48171;51.550;5.434;2023-01-28T01:53:15;102960.72;;;3.45;83.87
61018;BME280;48171;51.550;5.434;2023-01-28T01:55:44;102952.53;;;3.39;83.54
61018;BME280;48171;51.550;5.434;2023-01-28T01:58:15;102953.19;;;3.35;83.29
61018;BME280;48171;51.550;5.434;2023-01-28T02:00:41;102947.59;;;3.29;83.60
61018;BME280;48171;51.550;5.434;2023-01-28T02:03:08;102954.91;;;3.34;84.32
61018;BME280;48171;51.550;5.434;2023-01-28T02:05:34;102953.91;;;3.32;83.72
61018;BME280;48171;51.550;5.434;2023-01-28T02:07:59;102950.22;;;3.29;83.76
61018;BME280;48171;51.550;5.434;2023-01-28T02:10:45;102940.31;;;3.23;84.03
61018;BME280;48171;51.550;5.434;2023-01-28T02:13:13;102962.56;;;3.31;83.45
61018;BME280;48171;51.550;5.434;2023-01-28T02:15:39;102959.97;;;3.31;83.80
61018;BME280;48171;51.550;5.434;2023-01-28T02:18:04;102956.28;;;3.28;83.49
61018;BME280;48171;51.550;5.434;2023-01-28T02:20:54;102976.69;;;3.35;83.55
61018;BME280;48171;51.550;5.434;2023-01-28T02:31:43;102951.16;;;3.14;83.43
61018;BME280;48171;51.550;5.434;2023-01-28T02:34:33;102946.81;;;3.15;83.26
61018;BME280;48171;51.550;5.434;2023-01-28T02:37:08;102958.53;;;3.22;83.94
61018;BME280;48171;51.550;5.434;2023-01-28T02:39:42;102965.44;;;3.21;83.97
61018;BME280;48171;51.550;5.434;2023-01-28T02:42:21;102957.72;;;3.23;83.10
61018;BME280;48171;51.550;5.434;2023-01-28T02:44:48;102957.53;;;3.19;83.26
61018;BME280;48171;51.550;5.434;2023-01-28T02:47:14;102951.25;;;3.16;84.08
61018;BME280;48171;51.550;5.434;2023-01-28T02:50:02;102958.09;;;3.14;84.08
61018;BME280;48171;51.550;5.434;2023-01-28T02:52:29;102966.03;;;3.15;83.88
61018;BME280;48171;51.550;5.434;2023-01-28T02:58:19;102971.16;;;3.14;84.21
61018;BME280;48171;51.550;5.434;2023-01-28T03:00:58;102976.47;;;3.15;83.09
61018;BME280;48171;51.550;5.434;2023-01-28T03:03:37;102965.03;;;3.13;84.04
61018;BME280;48171;51.550;5.434;2023-01-28T03:06:10;102969.16;;;3.10;83.58
61018;BME280;48171;51.550;5.434;2023-01-28T03:08:50;102973.56;;;3.11;83.71
61018;BME280;48171;51.550;5.434;2023-01-28T03:11:39;102976.28;;;3.12;82.80
61018;BME280;48171;51.550;5.434;2023-01-28T03:14:25;102966.66;;;3.11;81.45
61018;BME280;48171;51.550;5.434;2023-01-28T03:17:15;102959.25;;;3.04;81.37
61018;BME280;48171;51.550;5.434;2023-01-28T03:20:01;102965.38;;;3.05;82.27
61018;BME280;48171;51.550;5.434;2023-01-28T03:22:49;102966.38;;;3.07;82.86
61018;BME280;48171;51.550;5.434;2023-01-28T03:25:36;102962.59;;;3.02;82.28
61018;BME280;48171;51.550;5.434;2023-01-28T03:28:24;102973.22;;;3.05;82.49
61018;BME280;48171;51.550;5.434;2023-01-28T03:31:11;102970.59;;;3.05;81.46
61018;BME280;48171;51.550;5.434;2023-01-28T03:33:56;102970.53;;;3.03;81.74
61018;BME280;48171;51.550;5.434;2023-01-28T03:36:42;102973.16;;;3.03;80.09
61018;BME280;48171;51.550;5.434;2023-01-28T03:39:25;102974.78;;;3.01;80.51
61018;BME280;48171;51.550;5.434;2023-01-28T03:42:06;102970.19;;;2.97;80.54
61018;BME280;48171;51.550;5.434;2023-01-28T03:44:32;102979.53;;;2.93;82.09
61018;BME280;48171;51.550;5.434;2023-01-28T03:47:17;102965.13;;;2.85;82.69
61018;BME280;48171;51.550;5.434;2023-01-28T03:49:48;102966.91;;;2.86;83.56
61018;BME280;48171;51.550;5.434;2023-01-28T03:52:15;102967.66;;;2.84;84.37
61018;BME280;48171;51.550;5.434;2023-01-28T03:54:42;102969.16;;;2.80;84.58
61018;BME280;48171;51.550;5.434;2023-01-28T03:57:08;102979.44;;;2.77;85.22
61018;BME280;48171;51.550;5.434;2023-01-28T03:59:34;102983.94;;;2.79;85.77
61018;BME280;48171;51.550;5.434;2023-01-28T04:01:59;102987.19;;;2.75;85.86
61018;BME280;48171;51.550;5.434;2023-01-28T04:04:28;102979.88;;;2.70;86.15
61018;BME280;48171;51.550;5.434;2023-01-28T04:06:53;102989.31;;;2.68;85.96
61018;BME280;48171;51.550;5.434;2023-01-28T04:09:20;102988.22;;;2.64;86.71
61018;BME280;48171;51.550;5.434;2023-01-28T04:11:46;102994.38;;;2.65;86.90
61018;BME280;48171;51.550;5.434;2023-01-28T04:14:12;103002.91;;;2.62;86.96
61018;BME280;48171;51.550;5.434;2023-01-28T04:16:38;103001.75;;;2.57;87.31
61018;BME280;48171;51.550;5.434;2023-01-28T04:19:03;102989.13;;;2.50;87.34
61018;BME280;48171;51.550;5.434;2023-01-28T04:21:28;102998.66;;;2.49;87.34
61018;BME280;48171;51.550;5.434;2023-01-28T04:23:54;103000.38;;;2.49;87.90
61018;BME280;48171;51.550;5.434;2023-01-28T04:26:19;102990.63;;;2.46;87.87
61018;BME280;48171;51.550;5.434;2023-01-28T04:28:44;102989.13;;;2.50;87.74
61018;BME280;48171;51.550;5.434;2023-01-28T04:31:09;102991.56;;;2.47;88.00
61018;BME280;48171;51.550;5.434;2023-01-28T04:33:35;102986.13;;;2.44;87.87
61018;BME280;48171;51.550;5.434;2023-01-28T04:36:00;102991.94;;;2.53;88.26
61018;BME280;48171;51.550;5.434;2023-01-28T04:38:25;102990.00;;;2.50;87.98
61018;BME280;48171;51.550;5.434;2023-01-28T04:40:52;102991.00;;;2.52;88.53
61018;BME280;48171;51.550;5.434;2023-01-28T04:43:18;102982.19;;;2.50;88.27
61018;BME280;48171;51.550;5.434;2023-01-28T04:45:47;102975.97;;;2.48;88.38
61018;BME280;48171;51.550;5.434;2023-01-28T04:48:13;102993.91;;;2.57;88.40
61018;BME280;48171;51.550;5.434;2023-01-28T04:50:38;102991.94;;;2.53;87.64
61018;BME280;48171;51.550;5.434;2023-01-28T04:53:04;102990.81;;;2.49;87.36
61018;BME280;48171;51.550;5.434;2023-01-28T04:55:29;102993.16;;;2.45;87.67
61018;BME280;48171;51.550;5.434;2023-01-28T04:57:55;102992.88;;;2.40;88.40
61018;BME280;48171;51.550;5.434;2023-01-28T05:00:20;102988.09;;;2.33;88.24
61018;BME280;48171;51.550;5.434;2023-01-28T05:02:45;102997.72;;;2.34;88.05
61018;BME280;48171;51.550;5.434;2023-01-28T05:05:11;102999.25;;;2.30;88.86
61018;BME280;48171;51.550;5.434;2023-01-28T05:07:36;102999.94;;;2.28;89.14
61018;BME280;48171;51.550;5.434;2023-01-28T05:10:03;102998.16;;;2.27;88.88
61018;BME280;48171;51.550;5.434;2023-01-28T05:12:28;102997.16;;;2.25;88.61
61018;BME280;48171;51.550;5.434;2023-01-28T05:14:57;102988.63;;;2.27;88.95
61018;BME280;48171;51.550;5.434;2023-01-28T05:17:24;103000.31;;;2.34;89.27
61018;BME280;48171;51.550;5.434;2023-01-28T05:19:49;103007.34;;;2.35;89.21
61018;BME280;48171;51.550;5.434;2023-01-28T05:22:15;103011.69;;;2.34;89.09
61018;BME280;48171;51.550;5.434;2023-01-28T05:24:40;103002.53;;;2.28;88.89
61018;BME280;48171;51.550;5.434;2023-01-28T05:27:05;103000.16;;;2.31;88.98
61018;BME280;48171;51.550;5.434;2023-01-28T05:29:31;102998.22;;;2.28;88.80
61018;BME280;48171;51.550;5.434;2023-01-28T05:31:56;102993.63;;;2.24;88.61
61018;BME280;48171;51.550;5.434;2023-01-28T05:34:22;102999.66;;;2.23;88.13
61018;BME280;48171;51.550;5.434;2023-01-28T05:36:47;102995.34;;;2.24;88.33
61018;BME280;48171;51.550;5.434;2023-01-28T05:39:12;102994.63;;;2.26;87.20
61018;BME280;48171;51.550;5.434;2023-01-28T05:41:38;102993.94;;;2.29;87.39
61018;BME280;48171;51.550;5.434;2023-01-28T05:44:03;102996.53;;;2.29;86.86
61018;BME280;48171;51.550;5.434;2023-01-28T05:46:28;103001.75;;;2.29;86.72
61018;BME280;48171;51.550;5.434;2023-01-28T05:48:53;102992.13;;;2.28;86.23
61018;BME280;48171;51.550;5.434;2023-01-28T05:51:19;102989.72;;;2.31;84.97
61018;BME280;48171;51.550;5.434;2023-01-28T05:53:44;102986.78;;;2.26;83.31
61018;BME280;48171;51.550;5.434;2023-01-28T05:56:09;102999.78;;;2.25;83.03
61018;BME280;48171;51.550;5.434;2023-01-28T05:58:35;102993.34;;;2.19;83.55
61018;BME280;48171;51.550;5.434;2023-01-28T06:01:00;103002.28;;;2.23;83.51
61018;BME280;48171;51.550;5.434;2023-01-28T06:03:25;102998.47;;;2.18;79.68
61018;BME280;48171;51.550;5.434;2023-01-28T06:05:51;103001.19;;;2.19;79.72
61018;BME280;48171;51.550;5.434;2023-01-28T06:08:16;102997.41;;;2.14;77.86
61018;BME280;48171;51.550;5.434;2023-01-28T06:10:41;103002.50;;;2.13;77.97
61018;BME280;48171;51.550;5.434;2023-01-28T06:13:07;103008.00;;;2.17;78.67
61018;BME280;48171;51.550;5.434;2023-01-28T06:15:32;102993.78;;;2.12;78.96
61018;BME280;48171;51.550;5.434;2023-01-28T06:17:57;103008.28;;;2.22;80.12
61018;BME280;48171;51.550;5.434;2023-01-28T06:20:23;103015.31;;;2.23;80.25
61018;BME280;48171;51.550;5.434;2023-01-28T06:22:50;103013.81;;;2.27;79.70
61018;BME280;48171;51.550;5.434;2023-01-28T06:25:15;103010.28;;;2.26;79.78
61018;BME280;48171;51.550;5.434;2023-01-28T06:27:41;103009.69;;;2.30;80.11
61018;BME280;48171;51.550;5.434;2023-01-28T06:30:07;103014.81;;;2.29;79.04
61018;BME280;48171;51.550;5.434;2023-01-28T06:32:32;103008.47;;;2.25;78.25
61018;BME280;48171;51.550;5.434;2023-01-28T06:34:58;103016.31;;;2.25;77.89
61018;BME280;48171;51.550;5.434;2023-01-28T06:37:23;103009.28;;;2.24;78.97
61018;BME280;48171;51.550;5.434;2023-01-28T06:39:48;103011.97;;;2.26;79.37
61018;BME280;48171;51.550;5.434;2023-01-28T06:42:13;103012.09;;;2.27;79.12
61018;BME280;48171;51.550;5.434;2023-01-28T06:44:39;103017.41;;;2.29;78.86
61018;BME280;48171;51.550;5.434;2023-01-28T06:47:04;103004.78;;;2.22;78.65
61018;BME280;48171;51.550;5.434;2023-01-28T06:49:29;103015.41;;;2.25;77.85
61018;BME280;48171;51.550;5.434;2023-01-28T06:51:55;103016.94;;;2.21;78.29
61018;BME280;48171;51.550;5.434;2023-01-28T06:54:20;103012.59;;;2.22;78.67
61018;BME280;48171;51.550;5.434;2023-01-28T06:56:45;103016.41;;;2.27;78.67
61018;BME280;48171;51.550;5.434;2023-01-28T06:59:11;103018.03;;;2.25;78.48
61018;BME280;48171;51.550;5.434;2023-01-28T07:01:36;103011.50;;;2.18;78.99
61018;BME280;48171;51.550;5.434;2023-01-28T07:04:01;103024.75;;;2.21;77.59
61018;BME280;48171;51.550;5.434;2023-01-28T07:06:27;103026.88;;;2.13;76.17
61018;BME280;48171;51.550;5.434;2023-01-28T07:08:52;103023.78;;;2.06;77.56
61018;BME280;48171;51.550;5.434;2023-01-28T07:11:17;103030.97;;;2.10;76.95
61018;BME280;48171;51.550;5.434;2023-01-28T07:13:42;103033.59;;;2.10;77.65
61018;BME280;48171;51.550;5.434;2023-01-28T07:16:08;103030.19;;;2.11;78.65
61018;BME280;48171;51.550;5.434;2023-01-28T07:18:34;103043.22;;;2.11;78.55
61018;BME280;48171;51.550;5.434;2023-01-28T07:21:00;103047.72;;;2.13;79.67
61018;BME280;48171;51.550;5.434;2023-01-28T07:23:25;103047.72;;;2.13;78.46
61018;BME280;48171;51.550;5.434;2023-01-28T07:25:51;103036.91;;;2.07;77.46
61018;BME280;48171;51.550;5.434;2023-01-28T07:28:16;103052.78;;;2.10;77.46
61018;BME280;48171;51.550;5.434;2023-01-28T07:30:51;103056.16;;;2.09;78.50
61018;BME280;48171;51.550;5.434;2023-01-28T07:33:16;103061.59;;;2.12;77.84
61018;BME280;48171;51.550;5.434;2023-01-28T07:35:42;103064.28;;;2.14;77.65
61018;BME280;48171;51.550;5.434;2023-01-28T07:38:08;103058.97;;;2.12;78.04
61018;BME280;48171;51.550;5.434;2023-01-28T07:40:33;103064.59;;;2.18;78.27
61018;BME280;48171;51.550;5.434;2023-01-28T07:42:58;103067.19;;;2.18;77.81
61018;BME280;48171;51.550;5.434;2023-01-28T07:45:25;103073.31;;;2.19;78.11
61018;BME280;48171;51.550;5.434;2023-01-28T07:47:55;103062.66;;;2.16;77.97
61018;BME280;48171;51.550;5.434;2023-01-28T07:50:21;103063.66;;;2.18;76.74
61018;BME280;48171;51.550;5.434;2023-01-28T07:52:47;103068.88;;;2.18;77.54
61018;BME280;48171;51.550;5.434;2023-01-28T07:55:12;103077.53;;;2.17;77.42
61018;BME280;48171;51.550;5.434;2023-01-28T07:57:48;103084.72;;;2.21;77.66
61018;BME280;48171;51.550;5.434;2023-01-28T08:00:14;103073.91;;;2.15;77.58
61018;BME280;48171;51.550;5.434;2023-01-28T08:02:39;103064.38;;;2.15;77.57
61018;BME280;48171;51.550;5.434;2023-01-28T08:05:05;103079.22;;;2.16;76.24
61018;BME280;48171;51.550;5.434;2023-01-28T08:07:30;103069.47;;;2.14;75.81
61018;BME280;48171;51.550;5.434;2023-01-28T08:09:55;103074.69;;;2.14;75.61
61018;BME280;48171;51.550;5.434;2023-01-28T08:12:21;103069.69;;;2.17;76.64
61018;BME280;48171;51.550;5.434;2023-01-28T08:14:46;103076.09;;;2.22;77.54
61018;BME280;48171;51.550;5.434;2023-01-28T08:17:11;103092.72;;;2.24;77.37
61018;BME280;48171;51.550;5.434;2023-01-28T08:19:36;103098.88;;;2.25;76.27
61018;BME280;48171;51.550;5.434;2023-01-28T08:22:02;103100.78;;;2.27;76.30
61018;BME280;48171;51.550;5.434;2023-01-28T08:24:27;103091.72;;;2.22;75.98
61018;BME280;48171;51.550;5.434;2023-01-28T08:26:52;103103.09;;;2.23;76.74
61018;BME280;48171;51.550;5.434;2023-01-28T08:29:18;103105.16;;;2.28;76.68
61018;BME280;48171;51.550;5.434;2023-01-28T08:31:43;103103.66;;;2.32;76.96
61018;BME280;48171;51.550;5.434;2023-01-28T08:34:08;103105.16;;;2.28;76.15
61018;BME280;48171;51.550;5.434;2023-01-28T08:36:33;103111.59;;;2.33;76.49
61018;BME280;48171;51.550;5.434;2023-01-28T08:38:59;103099.38;;;2.32;76.46
61018;BME280;48171;51.550;5.434;2023-01-28T08:41:24;103103.75;;;2.33;75.80
61018;BME280;48171;51.550;5.434;2023-01-28T08:43:49;103128.44;;;2.38;76.60
61018;BME280;48171;51.550;5.434;2023-01-28T08:46:15;103111.69;;;2.35;77.30
61018;BME280;48171;51.550;5.434;2023-01-28T08:48:40;103119.91;;;2.41;77.02
61018;BME280;48171;51.550;5.434;2023-01-28T08:51:06;103119.09;;;2.42;76.85
61018;BME280;48171;51.550;5.434;2023-01-28T08:53:31;103125.41;;;2.46;76.36
61018;BME280;48171;51.550;5.434;2023-01-28T08:55:57;103117.69;;;2.47;77.21
61018;BME280;48171;51.550;5.434;2023-01-28T08:58:22;103110.38;;;2.42;76.74
61018;BME280;48171;51.550;5.434;2023-01-28T09:00:48;103124.41;;;2.44;77.79
61018;BME280;48171;51.550;5.434;2023-01-28T09:03:14;103136.84;;;2.48;76.97
61018;BME280;48171;51.550;5.434;2023-01-28T09:05:39;103139.66;;;2.51;76.68
61018;BME280;48171;51.550;5.434;2023-01-28T09:08:11;103130.22;;;2.53;76.52
61018;BME280;48171;51.550;5.434;2023-01-28T09:10:36;103134.72;;;2.55;76.79
61018;BME280;48171;51.550;5.434;2023-01-28T09:13:06;103140.84;;;2.56;77.25
61018;BME280;48171;51.550;5.434;2023-01-28T09:15:32;103145.25;;;2.57;77.61
61018;BME280;48171;51.550;5.434;2023-01-28T09:17:58;103150.47;;;2.57;78.30
61018;BME280;48171;51.550;5.434;2023-01-28T09:20:24;103148.38;;;2.51;79.05
61018;BME280;48171;51.550;5.434;2023-01-28T09:22:49;103156.50;;;2.56;78.76
61018;BME280;48171;51.550;5.434;2023-01-28T09:25:14;103147.66;;;2.54;78.65
61018;BME280;48171;51.550;5.434;2023-01-28T09:27:40;103145.25;;;2.57;78.10
61018;BME280;48171;51.550;5.434;2023-01-28T09:30:05;103146.78;;;2.53;78.10
61018;BME280;48171;51.550;5.434;2023-01-28T09:32:31;103153.69;;;2.53;77.57
61018;BME280;48171;51.550;5.434;2023-01-28T09:34:57;103156.50;;;2.56;78.17
61018;BME280;48171;51.550;5.434;2023-01-28T09:37:23;103162.72;;;2.58;77.55
61018;BME280;48171;51.550;5.434;2023-01-28T09:39:48;103162.72;;;2.58;77.44
61018;BME280;48171;51.550;5.434;2023-01-28T09:47:39;103166.75;;;2.39;75.64
61018;BME280;48171;51.550;5.434;2023-01-28T09:50:15;103149.59;;;2.30;76.99
61018;BME280;48171;51.550;5.434;2023-01-28T09:52:41;103181.41;;;2.37;76.75
61018;BME280;48171;51.550;5.434;2023-01-28T09:55:28;103183.31;;;2.40;76.85
61018;BME280;48171;51.550;5.434;2023-01-28T09:57:54;103173.69;;;2.39;77.14
61018;BME280;48171;51.550;5.434;2023-01-28T10:00:23;103166.88;;;2.41;77.78
61018;BME280;48171;51.550;5.434;2023-01-28T10:13:37;103181.13;;;2.33;75.06
61018;BME280;48171;51.550;5.434;2023-01-28T10:16:10;103200.50;;;2.36;76.35
61018;BME280;48171;51.550;5.434;2023-01-28T10:18:48;103190.66;;;2.32;76.52
61018;BME280;48171;51.550;5.434;2023-01-28T10:21:23;103200.56;;;2.38;76.29
61018;BME280;48171;51.550;5.434;2023-01-28T10:23:58;103192.84;;;2.26;75.69
61018;BME280;48171;51.550;5.434;2023-01-28T10:26:33;103197.66;;;2.20;75.15
61018;BME280;48171;51.550;5.434;2023-01-28T10:29:18;103198.25;;;2.16;76.23
61018;BME280;48171;51.550;5.434;2023-01-28T10:31:53;103194.06;;;2.18;77.28
61018;BME280;48171;51.550;5.434;2023-01-28T10:34:19;103187.34;;;2.22;77.31
61018;BME280;48171;51.550;5.434;2023-01-28T10:36:46;103180.91;;;2.30;77.53
61018;BME280;48171;51.550;5.434;2023-01-28T10:39:17;103191.25;;;2.28;76.62
61018;BME280;48171;51.550;5.434;2023-01-28T10:41:43;103185.56;;;2.20;75.40
61018;BME280;48171;51.550;5.434;2023-01-28T10:44:27;103180.13;;;2.17;76.22
61018;BME280;48171;51.550;5.434;2023-01-28T10:46:56;103184.44;;;2.17;76.39
61018;BME280;48171;51.550;5.434;2023-01-28T10:49:28;103186.84;;;2.14;75.74
61018;BME280;48171;51.550;5.434;2023-01-28T10:51:55;103176.53;;;2.02;76.67
61018;BME280;48171;51.550;5.434;2023-01-28T10:54:26;103179.13;;;2.02;75.71
61018;BME280;48171;51.550;5.434;2023-01-28T10:56:54;103184.44;;;2.04;76.43
61018;BME280;48171;51.550;5.434;2023-01-28T10:59:33;103183.16;;;2.10;76.93
61018;BME280;48171;51.550;5.434;2023-01-28T11:02:03;103182.72;;;2.17;76.90
61018;BME280;48171;51.550;5.434;2023-01-28T11:04:31;103184.44;;;2.17;76.86
61018;BME280;48171;51.550;5.434;2023-01-28T11:07:04;103187.34;;;2.22;77.88
61018;BME280;48171;51.550;5.434;2023-01-28T11:09:35;103177.91;;;2.24;78.12
61018;BME280;48171;51.550;5.434;2023-01-28T11:12:19;103180.00;;;2.29;78.30
61018;BME280;48171;51.550;5.434;2023-01-28T11:14:59;103174.59;;;2.26;77.61
61018;BME280;48171;51.550;5.434;2023-01-28T11:17:26;103176.41;;;2.27;77.87
61018;BME280;48171;51.550;5.434;2023-01-28T11:19:54;103167.47;;;2.24;77.13
61018;BME280;48171;51.550;5.434;2023-01-28T11:22:29;103166.75;;;2.26;78.67
61018;BME280;48171;51.550;5.434;2023-01-28T11:24:57;103169.69;;;2.31;77.88
61018;BME280;48171;51.550;5.434;2023-01-28T11:27:28;103159.66;;;2.37;77.74
61018;BME280;48171;51.550;5.434;2023-01-28T11:29:59;103146.31;;;2.32;77.62
61018;BME280;48171;51.550;5.434;2023-01-28T11:32:28;103142.28;;;2.37;78.51
61018;BME280;48171;51.550;5.434;2023-01-28T11:34:55;103131.94;;;2.39;78.86
61018;BME280;48171;51.550;5.434;2023-01-28T11:37:27;103147.28;;;2.48;77.93
61018;BME280;48171;51.550;5.434;2023-01-28T11:40:00;103141.66;;;2.55;77.85
61018;BME280;48171;51.550;5.434;2023-01-28T11:42:26;103134.88;;;2.58;77.36
61018;BME280;48171;51.550;5.434;2023-01-28T11:44:57;103139.59;;;2.64;76.72
61018;BME280;48171;51.550;5.434;2023-01-28T11:47:53;103117.31;;;2.69;76.89
61018;BME280;48171;51.550;5.434;2023-01-28T11:50:35;103118.16;;;2.83;77.62
61018;BME280;48171;51.550;5.434;2023-01-28T11:53:31;103103.56;;;2.87;76.22
61018;BME280;48171;51.550;5.434;2023-01-28T11:59:02;103069.72;;;2.88;75.89
61018;BME280;48171;51.550;5.434;2023-01-28T12:15:25;103047.13;;;2.89;75.52
61018;BME280;48171;51.550;5.434;2023-01-28T12:21:05;103026.69;;;2.82;76.46
61018;BME280;48171;51.550;5.434;2023-01-28T12:23:58;103038.28;;;2.87;76.21
61018;BME280;48171;51.550;5.434;2023-01-28T12:26:44;103049.31;;;2.81;77.01
61018;BME280;48171;51.550;5.434;2023-01-28T12:34:55;103068.09;;;2.90;72.88
61018;BME280;48171;51.550;5.434;2023-01-28T12:40:24;103070.41;;;2.99;74.02
61018;BME280;48171;51.550;5.434;2023-01-28T12:43:02;103085.88;;;3.11;73.83
61018;BME280;48171;51.550;5.434;2023-01-28T12:45:42;103090.84;;;3.21;73.00
61018;BME280;48171;51.550;5.434;2023-01-28T12:48:27;103091.28;;;3.29;72.76
61018;BME280;48171;51.550;5.434;2023-01-28T13:09:10;103065.53;;;3.35;73.70
61018;BME280;48171;51.550;5.434;2023-01-28T13:36:05;103016.34;;;3.28;72.16
61018;BME280;48171;51.550;5.434;2023-01-28T13:46:18;103008.22;;;3.23;73.18
61018;BME280;48171;51.550;5.434;2023-01-28T13:52:28;103020.56;;;3.40;74.29
61018;BME280;48171;51.550;5.434;2023-01-28T13:55:15;103013.72;;;3.43;74.78
61018;BME280;48171;51.550;5.434;2023-01-28T14:19:59;103021.50;;;3.11;74.60
61018;BME280;48171;51.550;5.434;2023-01-28T14:22:27;103018.53;;;3.05;74.47
61018;BME280;48171;51.550;5.434;2023-01-28T14:24:53;103020.22;;;3.05;74.39
61018;BME280;48171;51.550;5.434;2023-01-28T14:27:31;103016.97;;;2.94;74.75
61018;BME280;48171;51.550;5.434;2023-01-28T14:30:21;103037.97;;;2.95;74.05
61018;BME280;48171;51.550;5.434;2023-01-28T14:32:50;103029.78;;;2.89;74.00
61018;BME280;48171;51.550;5.434;2023-01-28T14:35:21;103037.59;;;2.89;73.93
61018;BME280;48171;51.550;5.434;2023-01-28T14:37:50;103020.03;;;2.87;75.02
61018;BME280;48171;51.550;5.434;2023-01-28T14:40:16;103032.28;;;2.88;75.71
61018;BME280;48171;51.550;5.434;2023-01-28T14:42:45;103043.63;;;2.88;74.86
61018;BME280;48171;51.550;5.434;2023-01-28T14:48:37;103054.16;;;2.90;74.16
61018;BME280;48171;51.550;5.434;2023-01-28T14:51:42;103033.44;;;2.78;73.74
61018;BME280;48171;51.550;5.434;2023-01-28T15:00:02;103050.00;;;2.78;73.65
61018;BME280;48171;51.550;5.434;2023-01-28T15:02:32;103035.78;;;2.73;74.35
61018;BME280;48171;51.550;5.434;2023-01-28T15:05:34;103036.88;;;2.77;74.66
61018;BME280;48171;51.550;5.434;2023-01-28T15:11:34;103012.53;;;2.63;74.02
61018;BME280;48171;51.550;5.434;2023-01-28T15:24:42;102995.94;;;2.48;75.03
61018;BME280;48171;51.550;5.434;2023-01-28T15:31:33;103002.75;;;2.31;77.80
61018;BME280;48171;51.550;5.434;2023-01-28T15:38:07;103064.78;;;2.50;78.33
61018;BME280;48171;51.550;5.434;2023-01-28T15:41:21;103081.88;;;2.45;78.68
61018;BME280;48171;51.550;5.434;2023-01-28T15:44:04;103064.53;;;2.32;79.09
61018;BME280;48171;51.550;5.434;2023-01-28T15:50:34;103106.66;;;2.38;78.65
61018;BME280;48171;51.550;5.434;2023-01-28T15:53:35;103084.63;;;2.19;79.21
61018;BME280;48171;51.550;5.434;2023-01-28T15:56:56;103093.28;;;2.18;79.06
61018;BME280;48171;51.550;5.434;2023-01-28T16:03:32;103073.75;;;1.98;78.75
61018;BME280;48171;51.550;5.434;2023-01-28T16:13:51;103095.28;;;1.96;79.81